logo
Rechercher aéroport 
image banner adimage banner adimage banner ad
image banner ad

FALOBA - Lobatse Southeast

Situé à , South Africa

ICAO - , IATA -

Données fournies par Airmate  

Information générale

Coordonnées: S25°14'46" E25°52'55"
Élévation : 3743 feet MSL.
 
Voir autres Aéroports à North-West

Données opérationnelles

Special qualification required
Heure actuelle UTC:
Heure actuelle locale:
METAR: FBSK 171800Z 07004KT CAVOK 17/06 Q1022 NOSIG
TAF: TAF FBSK 171600Z 1718/1824 11005KT CAVOK
Voir NOTAMs / SUP AIP / TFR affectant cet aéroport [VIEW]
Fréquences de communication: [VIEW]

Pistes:

Identifiant RWYQFULongueur (ft)Largeur (ft)SurfaceLDA (ft)
16110°328149SAND
34290°328149SAND

Coordonnées de l'aéroport

Adresse: South Africa

Vue satellite de FALOBA